createdAt,value
2023-04-28T00:00:13.828Z,100586.08
2023-04-28T00:03:04.781Z,100583.32
2023-04-28T00:05:35.742Z,100585.72
2023-04-28T00:08:06.891Z,100587.58
2023-04-28T00:10:37.674Z,100584.91
2023-04-28T00:13:08.491Z,100584.83
2023-04-28T00:15:39.208Z,100586.04
2023-04-28T00:18:10.037Z,100588.83
2023-04-28T00:20:40.802Z,100588.25
2023-04-28T00:23:11.638Z,100590.11
2023-04-28T00:25:42.349Z,100588.67
2023-04-28T00:28:16.148Z,100591.41
2023-04-28T00:30:51.880Z,100589.83
2023-04-28T00:33:22.736Z,100591.77
2023-04-28T00:35:59.611Z,100594.57
2023-04-28T00:38:30.330Z,100592.13
2023-04-28T00:41:01.163Z,100594.08
2023-04-28T00:43:32.381Z,100595.48
2023-04-28T00:46:03.686Z,100596.08
2023-04-28T00:48:34.527Z,100597.57
2023-04-28T00:51:06.575Z,100597.31
2023-04-28T00:53:37.718Z,100601.55
2023-04-28T00:56:09.131Z,100599.16
2023-04-28T00:58:40.019Z,100599.42
2023-04-28T01:01:11.890Z,100600.41
2023-04-28T01:03:42.817Z,100602.16
2023-04-28T01:06:15.386Z,100601.77
2023-04-28T01:08:49.234Z,100600.53
2023-04-28T01:11:20.298Z,100600.16
2023-04-28T01:13:57.502Z,100596.56
2023-04-28T01:16:28.826Z,100597.23
2023-04-28T01:19:01.415Z,100592.98
2023-04-28T01:21:33.655Z,100594.82
2023-04-28T01:24:10.666Z,100592.80
2023-04-28T01:26:41.403Z,100593.80
2023-04-28T01:29:12.150Z,100591.87
2023-04-28T01:31:42.957Z,100592.08
2023-04-28T01:34:14.674Z,100591.20
2023-04-28T01:36:46.222Z,100593.25
2023-04-28T01:39:17.334Z,100594.13
2023-04-28T01:41:48.126Z,100595.84
2023-04-28T01:44:19.118Z,100597.83
2023-04-28T01:46:52.495Z,100601.53
2023-04-28T01:49:25.596Z,100604.11
2023-04-28T01:51:56.307Z,100608.17
2023-04-28T01:54:27.704Z,100609.92
2023-04-28T01:56:58.670Z,100605.71
2023-04-28T01:59:30.857Z,100607.84
2023-04-28T02:02:01.645Z,100609.83
2023-04-28T02:04:32.699Z,100608.20
2023-04-28T02:07:03.551Z,100608.67
2023-04-28T02:09:34.458Z,100607.02
2023-04-28T02:12:05.416Z,100609.27
2023-04-28T02:14:36.157Z,100604.09
2023-04-28T02:17:06.849Z,100605.41
2023-04-28T02:19:38.774Z,100608.51
2023-04-28T02:22:09.972Z,100607.91
2023-04-28T02:24:40.752Z,100603.43
2023-04-28T02:27:11.522Z,100604.19
2023-04-28T02:29:42.279Z,100604.77
2023-04-28T02:32:13.258Z,100606.05
2023-04-28T02:34:44.076Z,100605.66
2023-04-28T02:37:14.853Z,100612.70
2023-04-28T02:39:45.600Z,100613.83
2023-04-28T02:42:16.422Z,100608.78
2023-04-28T02:44:47.495Z,100610.20
2023-04-28T02:47:18.201Z,100609.98
2023-04-28T02:49:49.348Z,100612.02
2023-04-28T02:52:20.159Z,100612.75
2023-04-28T02:54:54.603Z,100614.98
2023-04-28T02:57:25.657Z,100609.73
2023-04-28T02:59:56.650Z,100609.79
2023-04-28T03:02:28.347Z,100612.66
2023-04-28T03:04:59.327Z,100614.77
2023-04-28T03:07:30.158Z,100616.15
2023-04-28T03:10:01.112Z,100612.23
2023-04-28T03:12:32.788Z,100611.40
2023-04-28T03:15:04.338Z,100611.90
2023-04-28T03:17:36.540Z,100613.67
2023-04-28T03:20:10.154Z,100616.86
2023-04-28T03:22:40.970Z,100618.05
2023-04-28T03:25:12.333Z,100618.79
2023-04-28T03:27:53.083Z,100616.97
2023-04-28T03:30:24.054Z,100619.52
2023-04-28T03:32:54.768Z,100615.45
2023-04-28T03:35:25.678Z,100619.13
2023-04-28T03:37:56.390Z,100620.97
2023-04-28T03:40:27.397Z,100622.55
2023-04-28T03:43:20.762Z,100623.73
2023-04-28T03:46:27.073Z,100622.91
2023-04-28T03:48:58.449Z,100624.47
2023-04-28T03:51:29.291Z,100626.42
2023-04-28T03:54:00.140Z,100625.43
2023-04-28T03:56:30.965Z,100624.52
2023-04-28T03:59:05.207Z,100629.38
2023-04-28T04:01:36.116Z,100630.80
2023-04-28T04:04:07.244Z,100633.02
2023-04-28T04:06:38.494Z,100636.41
2023-04-28T04:09:10.188Z,100636.83
2023-04-28T04:11:42.562Z,100640.20
2023-04-28T04:14:13.297Z,100641.94
2023-04-28T04:16:44.319Z,100641.27
2023-04-28T04:19:14.990Z,100639.55
2023-04-28T04:21:48.151Z,100646.14
2023-04-28T04:24:19.052Z,100646.46
2023-04-28T04:26:49.869Z,100647.58
2023-04-28T04:29:42.282Z,100646.34
2023-04-28T04:32:16.348Z,100649.37
2023-04-28T04:34:47.048Z,100651.17
2023-04-28T04:37:18.091Z,100653.13
2023-04-28T04:39:57.227Z,100653.20
2023-04-28T04:42:28.256Z,100651.39
2023-04-28T04:45:12.664Z,100650.80
2023-04-28T04:47:43.998Z,100650.58
2023-04-28T04:50:15.167Z,100647.11
2023-04-28T04:52:45.914Z,100648.63
2023-04-28T04:55:16.891Z,100649.34
2023-04-28T04:57:48.082Z,100648.23
2023-04-28T05:00:45.054Z,100653.48
2023-04-28T05:03:16.700Z,100650.40
2023-04-28T05:05:48.972Z,100651.21
2023-04-28T05:08:31.435Z,100646.71
2023-04-28T05:11:02.163Z,100646.66
2023-04-28T05:13:33.275Z,100644.20
2023-04-28T05:16:06.448Z,100646.07
2023-04-28T05:18:47.749Z,100645.80
2023-04-28T05:21:19.118Z,100644.77
2023-04-28T05:23:50.172Z,100650.77
2023-04-28T05:26:21.132Z,100650.71
2023-04-28T05:28:52.106Z,100653.48
2023-04-28T05:31:22.870Z,100650.42
2023-04-28T05:33:54.386Z,100651.95
2023-04-28T05:36:25.157Z,100652.30
2023-04-28T05:38:55.989Z,100651.32
2023-04-28T05:41:26.757Z,100653.35
2023-04-28T05:43:58.702Z,100652.77
2023-04-28T05:46:31.085Z,100655.50
2023-04-28T05:49:05.142Z,100648.41
2023-04-28T05:51:39.112Z,100652.98
2023-04-28T05:54:09.977Z,100652.52
2023-04-28T05:56:45.386Z,100655.19
2023-04-28T05:59:16.811Z,100655.01
2023-04-28T06:01:47.702Z,100650.42
2023-04-28T06:04:18.789Z,100654.37
2023-04-28T06:06:51.572Z,100658.37
2023-04-28T06:09:22.786Z,100659.90
2023-04-28T06:11:53.657Z,100656.58
2023-04-28T06:14:24.944Z,100655.38
2023-04-28T06:16:55.742Z,100652.20
2023-04-28T06:19:26.456Z,100655.27
2023-04-28T06:21:57.186Z,100656.05
2023-04-28T06:24:27.987Z,100653.87
2023-04-28T06:26:59.907Z,100655.05
2023-04-28T06:29:31.211Z,100655.80
2023-04-28T06:32:02.024Z,100650.64
2023-04-28T06:34:33.014Z,100649.20
2023-04-28T06:37:03.789Z,100648.79
2023-04-28T06:39:35.770Z,100643.81
2023-04-28T06:42:06.576Z,100644.65
2023-04-28T06:44:39.960Z,100642.48
2023-04-28T06:47:10.819Z,100639.59
2023-04-28T06:49:44.398Z,100639.10
2023-04-28T06:52:15.777Z,100637.92
2023-04-28T06:54:46.586Z,100637.60
2023-04-28T06:57:17.347Z,100635.80
2023-04-28T06:59:48.423Z,100635.73
2023-04-28T07:02:19.167Z,100637.81
2023-04-28T07:04:49.962Z,100634.70
2023-04-28T07:07:20.992Z,100634.94
2023-04-28T07:09:53.583Z,100636.35
2023-04-28T07:12:24.453Z,100635.36
2023-04-28T07:14:56.100Z,100632.66
2023-04-28T07:17:27.096Z,100634.17
2023-04-28T07:19:57.860Z,100632.52
2023-04-28T07:22:28.628Z,100631.63
2023-04-28T07:24:59.353Z,100629.25
2023-04-28T07:27:30.071Z,100627.69
2023-04-28T07:30:04.642Z,100626.79
2023-04-28T07:32:44.020Z,100624.27
2023-04-28T07:35:14.857Z,100621.76
2023-04-28T07:37:45.561Z,100620.28
2023-04-28T07:40:16.966Z,100622.48
2023-04-28T07:42:48.062Z,100619.15
2023-04-28T07:45:18.768Z,100612.58
2023-04-28T07:47:49.611Z,100607.56
2023-04-28T07:50:20.318Z,100606.60
2023-04-28T07:52:51.096Z,100609.67
2023-04-28T07:55:21.798Z,100608.51
2023-04-28T07:57:52.497Z,100610.02
2023-04-28T08:00:23.181Z,100611.11
2023-04-28T08:02:54.040Z,100610.95
2023-04-28T08:05:24.996Z,100608.27
2023-04-28T08:07:56.029Z,100609.58
2023-04-28T08:10:26.882Z,100602.13
2023-04-28T08:12:57.602Z,100598.16
2023-04-28T08:15:28.328Z,100597.86
2023-04-28T08:17:59.212Z,100592.34
2023-04-28T08:20:30.459Z,100594.08
2023-04-28T08:23:01.290Z,100594.59
2023-04-28T08:25:32.111Z,100598.94
2023-04-28T08:28:03.855Z,100595.65
2023-04-28T08:30:34.895Z,100596.50
2023-04-28T08:33:07.285Z,100592.30
2023-04-28T08:35:38.392Z,100585.08
2023-04-28T08:38:13.964Z,100584.13
2023-04-28T08:40:44.908Z,100585.17
2023-04-28T08:43:15.689Z,100591.30
2023-04-28T08:45:46.490Z,100589.69
2023-04-28T08:48:20.478Z,100582.64
2023-04-28T08:50:52.848Z,100584.78
2023-04-28T08:53:26.603Z,100587.33
2023-04-28T08:55:58.670Z,100584.30
2023-04-28T08:58:29.606Z,100581.52
2023-04-28T09:01:00.257Z,100584.33
2023-04-28T09:03:31.107Z,100582.90
2023-04-28T09:06:02.963Z,100577.00
2023-04-28T09:08:33.650Z,100576.43
2023-04-28T09:11:11.340Z,100570.27
2023-04-28T09:13:42.320Z,100569.68
2023-04-28T09:16:13.216Z,100565.62
2023-04-28T09:18:56.757Z,100560.60
2023-04-28T09:21:27.499Z,100561.77
2023-04-28T09:23:58.097Z,100559.67
2023-04-28T09:26:28.777Z,100558.11
2023-04-28T09:29:13.009Z,100558.08
2023-04-28T09:31:44.397Z,100559.17
2023-04-28T09:34:15.805Z,100553.75
2023-04-28T09:36:46.870Z,100552.73
2023-04-28T09:39:29.199Z,100547.52
2023-04-28T09:42:03.575Z,100547.92
2023-04-28T09:44:34.308Z,100550.35
2023-04-28T09:47:21.172Z,100546.90
2023-04-28T09:49:59.919Z,100549.39
2023-04-28T09:52:30.637Z,100540.08
2023-04-28T09:55:02.604Z,100538.10
2023-04-28T09:57:34.030Z,100538.89
2023-04-28T10:00:06.473Z,100541.74
2023-04-28T10:05:13.271Z,100544.00
2023-04-28T10:07:44.173Z,100538.89
2023-04-28T10:10:15.751Z,100531.36
2023-04-28T10:12:46.773Z,100532.00
2023-04-28T10:15:17.448Z,100527.45
2023-04-28T10:17:49.271Z,100522.25
2023-04-28T10:20:21.846Z,100520.66
2023-04-28T10:23:00.996Z,100516.98
2023-04-28T10:25:32.844Z,100512.54
2023-04-28T10:28:07.110Z,100512.34
2023-04-28T10:30:38.223Z,100512.02
2023-04-28T10:33:28.457Z,100514.96
2023-04-28T10:35:59.446Z,100509.27
2023-04-28T10:38:30.196Z,100506.11
2023-04-28T10:41:03.057Z,100501.90
2023-04-28T10:43:39.911Z,100499.58
2023-04-28T10:46:11.910Z,100495.52
2023-04-28T10:48:56.393Z,100494.95
2023-04-28T10:51:37.725Z,100498.45
2023-04-28T10:54:20.710Z,100496.02
2023-04-28T10:57:08.569Z,100499.60
2023-04-28T10:59:39.344Z,100495.68
2023-04-28T11:02:27.474Z,100489.35
2023-04-28T11:05:15.011Z,100491.44
2023-04-28T11:10:50.424Z,100486.84
2023-04-28T11:13:34.374Z,100484.41
2023-04-28T11:16:05.727Z,100484.75
2023-04-28T11:18:49.497Z,100483.44
2023-04-28T11:21:20.707Z,100478.75
2023-04-28T11:23:51.740Z,100476.21
2023-04-28T11:26:23.815Z,100474.22
2023-04-28T11:28:56.349Z,100470.05
2023-04-28T11:31:28.809Z,100470.46
2023-04-28T11:34:00.729Z,100475.78
2023-04-28T11:36:34.840Z,100471.00
2023-04-28T11:39:08.065Z,100471.00
2023-04-28T11:41:39.758Z,100469.31
2023-04-28T11:44:14.069Z,100469.13
2023-04-28T11:46:51.107Z,100466.38
2023-04-28T11:49:22.612Z,100463.60
2023-04-28T11:51:53.679Z,100461.36
2023-04-28T11:54:25.763Z,100458.57
2023-04-28T11:56:57.729Z,100457.20
2023-04-28T11:59:29.189Z,100455.11
2023-04-28T12:02:00.935Z,100449.75
2023-04-28T12:04:35.767Z,100450.08
2023-04-28T12:07:10.325Z,100447.05
2023-04-28T12:09:41.991Z,100446.59
2023-04-28T12:12:14.324Z,100443.99
2023-04-28T12:14:57.761Z,100449.58
2023-04-28T12:17:29.363Z,100441.36
2023-04-28T12:20:01.165Z,100439.89
2023-04-28T12:22:32.274Z,100439.98
2023-04-28T12:25:08.093Z,100438.43
2023-04-28T12:27:40.657Z,100437.48
2023-04-28T12:30:27.565Z,100433.24
2023-04-28T12:32:58.561Z,100430.55
2023-04-28T12:35:30.230Z,100420.85
2023-04-28T12:38:01.090Z,100420.96
2023-04-28T12:40:31.739Z,100424.11
2023-04-28T12:43:02.458Z,100420.92
2023-04-28T12:45:34.955Z,100417.09
2023-04-28T12:48:06.693Z,100416.71
2023-04-28T12:50:37.435Z,100413.50
2023-04-28T12:53:08.197Z,100413.54
2023-04-28T12:55:40.049Z,100408.56
2023-04-28T12:58:10.825Z,100404.84
2023-04-28T13:00:42.012Z,100402.48
2023-04-28T13:03:12.910Z,100398.52
2023-04-28T13:05:44.348Z,100396.64
2023-04-28T13:08:15.133Z,100393.40
2023-04-28T13:10:45.845Z,100390.29
2023-04-28T13:13:16.533Z,100385.20
2023-04-28T13:15:47.338Z,100380.98
2023-04-28T13:18:18.242Z,100380.39
2023-04-28T13:20:48.911Z,100378.41
2023-04-28T13:23:19.615Z,100371.36
2023-04-28T13:25:50.420Z,100368.92
2023-04-28T13:28:21.356Z,100367.71
2023-04-28T13:30:52.280Z,100365.95
2023-04-28T13:33:23.065Z,100365.00
2023-04-28T13:35:53.812Z,100359.77
2023-04-28T13:38:25.022Z,100357.25
2023-04-28T13:40:55.855Z,100354.73
2023-04-28T13:43:26.627Z,100350.60
2023-04-28T13:45:57.384Z,100349.98
2023-04-28T13:48:29.432Z,100343.27
2023-04-28T13:51:00.190Z,100341.02
2023-04-28T13:53:31.016Z,100333.62
2023-04-28T13:56:01.890Z,100333.97
2023-04-28T13:58:32.729Z,100332.19
2023-04-28T14:01:04.111Z,100328.98
2023-04-28T14:03:36.142Z,100332.23
2023-04-28T14:06:08.916Z,100332.87
2023-04-28T14:08:39.788Z,100331.45
2023-04-28T14:11:10.554Z,100326.17
2023-04-28T14:13:41.290Z,100324.48
2023-04-28T14:16:12.911Z,100322.57
2023-04-28T14:18:43.610Z,100318.50
2023-04-28T14:21:14.391Z,100322.34
2023-04-28T14:23:45.144Z,100318.51
2023-04-28T14:26:15.868Z,100314.64
2023-04-28T14:28:46.544Z,100311.86
2023-04-28T14:31:18.234Z,100312.86
2023-04-28T14:33:49.016Z,100304.05
2023-04-28T14:36:19.712Z,100303.29
2023-04-28T14:38:50.673Z,100300.68
2023-04-28T14:41:21.537Z,100298.16
2023-04-28T14:43:52.527Z,100301.98
2023-04-28T14:46:24.265Z,100297.05
2023-04-28T14:48:55.210Z,100299.70
2023-04-28T14:51:26.150Z,100295.33
2023-04-28T14:53:56.938Z,100297.22
2023-04-28T14:56:28.131Z,100295.86
2023-04-28T14:58:58.829Z,100290.58
2023-04-28T15:01:29.626Z,100288.96
2023-04-28T15:04:00.792Z,100287.36
2023-04-28T15:06:32.173Z,100284.16
2023-04-28T15:09:02.898Z,100278.60
2023-04-28T15:11:34.037Z,100277.80
2023-04-28T15:14:04.722Z,100277.26
2023-04-28T15:16:35.760Z,100274.38
2023-04-28T15:19:06.583Z,100272.00
2023-04-28T15:21:37.480Z,100269.41
2023-04-28T15:24:08.366Z,100272.11
2023-04-28T15:26:39.100Z,100267.80
2023-04-28T15:29:10.702Z,100264.84
2023-04-28T15:31:41.753Z,100263.22
2023-04-28T15:34:13.053Z,100259.32
2023-04-28T15:36:44.742Z,100257.90
2023-04-28T15:39:16.174Z,100253.16
2023-04-28T15:41:46.832Z,100257.50
2023-04-28T15:44:17.554Z,100255.23
2023-04-28T15:46:48.302Z,100257.57
2023-04-28T15:49:19.012Z,100254.09
2023-04-28T15:51:49.862Z,100258.22
2023-04-28T15:54:20.764Z,100252.23
2023-04-28T15:56:51.376Z,100249.81
2023-04-28T15:59:22.052Z,100251.98
2023-04-28T16:01:52.743Z,100247.70
2023-04-28T16:04:23.742Z,100247.02
2023-04-28T16:06:54.498Z,100247.49
2023-04-28T16:09:25.207Z,100247.41
2023-04-28T16:11:57.549Z,100245.77
2023-04-28T16:14:28.277Z,100248.34
2023-04-28T16:16:59.121Z,100245.66
2023-04-28T16:19:30.525Z,100243.88
2023-04-28T16:22:01.511Z,100247.58
2023-04-28T16:24:32.412Z,100243.34
2023-04-28T16:27:03.667Z,100241.42
2023-04-28T16:29:34.923Z,100246.16
2023-04-28T16:32:06.150Z,100242.52
2023-04-28T16:34:36.988Z,100242.69
2023-04-28T16:37:08.388Z,100245.60
2023-04-28T16:39:38.978Z,100237.36
2023-04-28T16:42:09.541Z,100237.52
2023-04-28T16:44:40.159Z,100237.06
2023-04-28T16:47:11.101Z,100233.61
2023-04-28T16:49:41.707Z,100229.52
2023-04-28T16:52:12.339Z,100220.98
2023-04-28T16:54:43.031Z,100224.56
2023-04-28T16:57:13.701Z,100220.48
2023-04-28T16:59:44.330Z,100218.70
2023-04-28T17:02:15.127Z,100216.04
2023-04-28T17:04:46.022Z,100216.84
2023-04-28T17:07:16.661Z,100216.77
2023-04-28T17:09:47.295Z,100214.71
2023-04-28T17:12:18.008Z,100212.33
2023-04-28T17:14:50.658Z,100208.79
2023-04-28T17:17:21.304Z,100204.39
2023-04-28T17:19:52.030Z,100209.69
2023-04-28T17:22:23.156Z,100206.81
2023-04-28T17:24:53.784Z,100206.91
2023-04-28T17:27:24.586Z,100201.09
2023-04-28T17:29:55.267Z,100200.86
2023-04-28T17:32:26.034Z,100196.11
2023-04-28T17:34:56.743Z,100202.69
2023-04-28T17:37:27.781Z,100201.54
2023-04-28T17:39:58.528Z,100202.66
2023-04-28T17:42:31.597Z,100202.49
2023-04-28T17:45:02.225Z,100198.98
2023-04-28T17:47:34.287Z,100197.66
2023-04-28T17:50:05.188Z,100194.48
2023-04-28T17:52:36.460Z,100195.36
2023-04-28T17:55:07.615Z,100193.26
2023-04-28T17:57:38.270Z,100194.17
2023-04-28T18:00:10.432Z,100195.65
2023-04-28T18:02:44.098Z,100198.11
2023-04-28T18:05:17.342Z,100200.08
2023-04-28T18:07:47.828Z,100198.66
2023-04-28T18:10:18.488Z,100197.42
2023-04-28T18:12:49.730Z,100194.39
2023-04-28T18:15:21.882Z,100196.79
2023-04-28T18:17:52.783Z,100195.36
2023-04-28T18:20:23.465Z,100200.95
2023-04-28T18:22:54.138Z,100200.80
2023-04-28T18:25:24.778Z,100203.61
2023-04-28T18:27:55.410Z,100201.44
2023-04-28T18:30:26.123Z,100202.33
2023-04-28T18:32:56.746Z,100202.80
2023-04-28T18:35:27.364Z,100199.88
2023-04-28T18:37:57.994Z,100204.33
2023-04-28T18:40:28.620Z,100207.06
2023-04-28T18:42:59.247Z,100203.77
2023-04-28T18:45:32.375Z,100200.65
2023-04-28T18:48:03.992Z,100202.10
2023-04-28T18:50:36.381Z,100207.20
2023-04-28T18:53:08.887Z,100201.83
2023-04-28T18:55:39.631Z,100201.70
2023-04-28T18:58:10.879Z,100208.22
2023-04-28T19:00:41.903Z,100208.05
2023-04-28T19:03:12.796Z,100205.77
2023-04-28T19:05:44.537Z,100208.77
2023-04-28T19:08:15.163Z,100206.84
2023-04-28T19:10:45.906Z,100198.64
2023-04-28T19:13:16.544Z,100201.59
2023-04-28T19:15:47.276Z,100192.30
2023-04-28T19:18:17.986Z,100198.92
2023-04-28T19:20:50.657Z,100198.59
2023-04-28T19:23:21.658Z,100197.23
2023-04-28T19:25:52.361Z,100195.79
2023-04-28T19:28:23.136Z,100192.28
2023-04-28T19:30:54.355Z,100197.14
2023-04-28T19:33:27.778Z,100198.04
2023-04-28T19:36:00.034Z,100197.20
2023-04-28T19:38:30.769Z,100193.39
2023-04-28T19:41:02.146Z,100192.73
2023-04-28T19:43:32.877Z,100191.21
2023-04-28T19:46:03.954Z,100190.73
2023-04-28T19:48:34.715Z,100188.06
2023-04-28T19:51:05.595Z,100190.54
2023-04-28T19:53:40.481Z,100190.43
2023-04-28T19:56:11.126Z,100191.64
2023-04-28T19:58:41.722Z,100193.66
2023-04-28T20:01:12.424Z,100191.98
2023-04-28T20:03:43.251Z,100191.94
2023-04-28T20:06:17.883Z,100196.37
2023-04-28T20:08:48.676Z,100197.65
2023-04-28T20:11:19.733Z,100200.98
2023-04-28T20:13:50.716Z,100196.83
2023-04-28T20:16:22.423Z,100199.92
2023-04-28T20:18:53.200Z,100198.84
2023-04-28T20:21:23.879Z,100198.59
2023-04-28T20:23:54.490Z,100199.08
2023-04-28T20:26:25.313Z,100199.02
2023-04-28T20:28:57.218Z,100200.55
2023-04-28T20:31:27.891Z,100203.23
2023-04-28T20:33:58.634Z,100198.46
2023-04-28T20:36:29.926Z,100201.58
2023-04-28T20:39:00.538Z,100202.21
2023-04-28T20:41:31.314Z,100206.29
2023-04-28T20:44:02.369Z,100203.39
2023-04-28T20:46:33.542Z,100203.60
2023-04-28T20:49:05.766Z,100202.61
2023-04-28T20:51:37.501Z,100204.34
2023-04-28T20:54:08.711Z,100199.38
2023-04-28T20:56:39.510Z,100201.08
2023-04-28T20:59:10.148Z,100202.00
2023-04-28T21:01:41.204Z,100198.55
2023-04-28T21:04:12.201Z,100201.00
2023-04-28T21:06:43.021Z,100201.95
2023-04-28T21:09:14.038Z,100197.52
2023-04-28T21:11:44.780Z,100192.68
2023-04-28T21:14:16.812Z,100193.23
2023-04-28T21:16:47.476Z,100193.01
2023-04-28T21:19:18.585Z,100195.52
2023-04-28T21:21:49.284Z,100187.80
2023-04-28T21:24:20.564Z,100186.09
2023-04-28T21:26:51.234Z,100179.69
2023-04-28T21:29:21.900Z,100179.88
2023-04-28T21:31:52.668Z,100177.05
2023-04-28T21:34:23.342Z,100177.18
2023-04-28T21:36:53.949Z,100175.42
2023-04-28T21:39:24.592Z,100167.23
2023-04-28T21:41:55.237Z,100169.89
2023-04-28T21:44:26.246Z,100165.42
2023-04-28T21:46:57.081Z,100166.77
2023-04-28T21:49:28.600Z,100163.73
2023-04-28T21:51:59.482Z,100162.91
2023-04-28T21:54:30.154Z,100163.13
2023-04-28T21:57:00.797Z,100160.27
2023-04-28T21:59:31.336Z,100157.79
2023-04-28T22:02:02.314Z,100155.92
2023-04-28T22:04:34.350Z,100154.30
2023-04-28T22:07:05.423Z,100151.77
2023-04-28T22:09:36.127Z,100147.65
2023-04-28T22:12:06.872Z,100144.59
2023-04-28T22:14:40.945Z,100151.44
2023-04-28T22:17:12.153Z,100145.38
2023-04-28T22:19:42.814Z,100141.65
2023-04-28T22:22:13.423Z,100141.38
2023-04-28T22:24:43.950Z,100139.70
2023-04-28T22:27:15.562Z,100136.20
2023-04-28T22:29:46.256Z,100132.04
2023-04-28T22:32:16.890Z,100134.37
2023-04-28T22:34:48.185Z,100133.39
2023-04-28T22:37:18.830Z,100128.25
2023-04-28T22:39:49.597Z,100125.84
2023-04-28T22:42:20.384Z,100123.31
2023-04-28T22:44:51.078Z,100120.91
2023-04-28T22:47:21.686Z,100113.96
2023-04-28T22:49:52.550Z,100114.83
2023-04-28T22:52:23.884Z,100117.60
2023-04-28T22:54:54.668Z,100111.66
2023-04-28T22:57:25.691Z,100114.61
2023-04-28T22:59:56.314Z,100108.00
2023-04-28T23:02:27.096Z,100105.09
2023-04-28T23:04:58.042Z,100100.48
2023-04-28T23:07:28.714Z,100097.55
2023-04-28T23:09:59.347Z,100092.74
2023-04-28T23:12:29.973Z,100094.11
2023-04-28T23:15:00.628Z,100090.38
2023-04-28T23:17:31.399Z,100084.77
2023-04-28T23:20:02.012Z,100088.58
2023-04-28T23:22:32.702Z,100084.89
2023-04-28T23:25:04.433Z,100086.11
2023-04-28T23:27:35.132Z,100079.66
2023-04-28T23:30:06.338Z,100075.48
2023-04-28T23:32:38.620Z,100077.48
2023-04-28T23:35:09.744Z,100075.27
2023-04-28T23:37:40.418Z,100070.19
2023-04-28T23:40:11.948Z,100063.77
2023-04-28T23:42:42.605Z,100060.84
2023-04-28T23:45:13.380Z,100055.57
2023-04-28T23:47:44.136Z,100055.77
2023-04-28T23:50:14.880Z,100047.56
2023-04-28T23:52:46.254Z,100043.34
2023-04-28T23:55:16.975Z,100036.15
2023-04-28T23:57:47.679Z,100034.50
